Time;durP1;ratioP1;P1;durP2;ratioP2;P2;SDS_P1;SDS_P2;PMS_P1;PMS_P2;Temp;Humidity;BMP_temperature;BMP_pressure;BME280_temperature;BME280_humidity;BME280_pressure;Samples;Min_cycle;Max_cycle;Signal;HPM_P1;HPM_P2
2021/04/16 00:00:40;;;;;;;3.90;3.52;;;;;;;4.21;96.11;100369.98;1724355;83;21484;-42
2021/04/16 00:03:08;;;;;;;4.05;3.65;;;;;;;4.24;96.20;100373.84;1724445;83;21002;-42
2021/04/16 00:05:37;;;;;;;4.95;3.47;;;;;;;4.26;96.21;100378.55;1724397;83;21038;-42
2021/04/16 00:08:09;;;;;;;4.33;3.77;;;;;;;4.28;96.26;100371.72;1724484;83;21559;-42
2021/04/16 00:10:42;;;;;;;6.00;3.75;;;;;;;4.30;96.28;100373.86;1724376;83;21125;-42
2021/04/16 00:13:12;;;;;;;3.30;3.05;;;;;;;4.29;96.23;100377.28;1724283;83;20954;-43
2021/04/16 00:15:41;;;;;;;3.80;3.60;;;;;;;4.27;96.13;100371.29;1724290;83;21002;-43
2021/04/16 00:18:11;;;;;;;3.67;3.35;;;;;;;4.23;96.12;100378.53;1724536;82;21579;-42
2021/04/16 00:20:39;;;;;;;4.45;4.05;;;;;;;4.19;96.08;100379.36;1724286;83;21054;-42
2021/04/16 00:23:08;;;;;;;3.80;3.50;;;;;;;4.15;96.16;100379.75;1724415;83;21010;-43
2021/04/16 00:25:35;;;;;;;4.05;3.75;;;;;;;4.14;96.16;100375.48;1724339;81;21343;-43
2021/04/16 00:28:04;;;;;;;4.12;3.83;;;;;;;4.09;96.18;100376.28;1724333;83;21034;-43
2021/04/16 00:30:40;;;;;;;7.00;3.87;;;;;;;4.08;96.28;100379.70;1724407;83;21663;-42
2021/04/16 00:33:08;;;;;;;4.10;3.75;;;;;;;4.05;96.31;100377.11;1724355;83;21037;-42
2021/04/16 00:35:37;;;;;;;5.03;3.98;;;;;;;4.02;96.30;100380.50;1724385;83;20963;-41
2021/04/16 00:38:05;;;;;;;6.60;4.22;;;;;;;4.02;96.39;100375.38;1724387;83;21378;-43
2021/04/16 00:40:44;;;;;;;4.30;4.00;;;;;;;4.02;96.56;100380.09;1741850;81;21994;-43
2021/04/16 00:43:13;;;;;;;5.90;5.15;;;;;;;4.05;96.58;100375.83;1752291;81;21002;-42
2021/04/16 00:45:40;;;;;;;5.90;5.12;;;;;;;4.12;96.62;100383.98;1752210;81;20943;-41
2021/04/16 00:48:31;;;;;;;9.20;5.42;;;;;;;4.12;96.62;100383.98;1752292;81;21018;-41
2021/04/16 00:51:03;;;;;;;6.03;5.42;;;;;;;4.18;96.95;100378.93;1752227;81;21205;-42
2021/04/16 00:53:31;;;;;;;9.58;7.28;;;;;;;4.26;97.08;100385.36;1752196;81;21014;-42
2021/04/16 00:55:59;;;;;;;7.50;6.40;;;;;;;4.32;97.11;100379.02;1752209;81;20899;-43
2021/04/16 00:58:30;;;;;;;8.85;7.47;;;;;;;4.38;97.14;100382.89;1752231;81;20974;-43
2021/04/16 01:00:58;;;;;;;10.93;7.15;;;;;;;4.44;96.95;100377.79;1724984;81;20963;-42
2021/04/16 01:03:26;;;;;;;13.62;8.60;;;;;;;4.44;96.95;100377.79;1752255;81;22361;-43
2021/04/16 01:05:58;;;;;;;17.00;9.45;;;;;;;4.49;97.07;100385.52;1752164;81;21058;-42
2021/04/16 01:08:27;;;;;;;22.70;11.48;;;;;;;4.53;97.20;100387.66;1752291;81;21383;-42
2021/04/16 01:10:54;;;;;;;16.67;10.38;;;;;;;4.60;97.49;100378.72;1749533;81;21042;-42
2021/04/16 01:13:23;;;;;;;17.10;11.50;;;;;;;4.60;97.49;100378.72;1752287;81;21022;-42
2021/04/16 01:15:59;;;;;;;16.77;11.08;;;;;;;4.68;97.37;100381.33;1752225;81;20962;-43
2021/04/16 01:18:31;;;;;;;17.52;10.63;;;;;;;4.68;97.37;100381.33;1752361;81;20939;-42
2021/04/16 01:21:01;;;;;;;16.48;10.35;;;;;;;4.70;97.13;100374.94;1752171;81;21006;-42
2021/04/16 01:24:05;;;;;;;14.87;10.88;;;;;;;4.69;97.03;100367.66;1725400;81;21014;-42
2021/04/16 01:26:38;;;;;;;17.80;11.08;;;;;;;4.67;96.94;100376.18;1751102;80;21101;-42
2021/04/16 01:29:06;;;;;;;15.53;11.15;;;;;;;4.58;96.69;100372.73;1752299;81;21161;-42
2021/04/16 01:31:35;;;;;;;24.57;11.90;;;;;;;4.58;96.69;100372.73;1752047;81;21001;-42
2021/04/16 01:34:04;;;;;;;16.12;11.38;;;;;;;4.58;96.81;100372.73;1752158;81;21018;-42
2021/04/16 01:36:34;;;;;;;16.90;11.60;;;;;;;4.53;96.83;100371.86;1752151;81;21030;-42
2021/04/16 01:39:04;;;;;;;19.50;12.47;;;;;;;4.51;96.88;100373.56;1752234;81;21061;-42
2021/04/16 01:41:32;;;;;;;16.45;11.78;;;;;;;4.51;96.88;100371.41;1744684;81;21199;-42
2021/04/16 01:44:12;;;;;;;18.92;12.95;;;;;;;4.50;96.63;100374.41;1743922;82;21058;-43
2021/04/16 01:46:55;;;;;;;15.72;12.43;;;;;;;4.48;96.97;100372.67;1743871;82;20983;-42
2021/04/16 01:49:32;;;;;;;19.57;11.80;;;;;;;4.48;97.04;100376.11;1743931;82;21078;-41
2021/04/16 01:51:59;;;;;;;18.35;12.23;;;;;;;4.46;97.25;100372.69;1743809;82;21018;-42
2021/04/16 01:54:33;;;;;;;20.10;12.75;;;;;;;4.46;97.25;100372.69;1743946;82;21431;-42
2021/04/16 01:57:09;;;;;;;15.60;11.57;;;;;;;4.43;97.02;100366.27;1743901;82;21408;-42
2021/04/16 01:59:38;;;;;;;18.40;12.17;;;;;;;4.43;97.02;100366.27;1744137;82;21177;-42
2021/04/16 02:02:08;;;;;;;16.00;12.03;;;;;;;4.42;96.86;100367.08;1743905;82;21034;-42
2021/04/16 02:04:36;;;;;;;14.80;11.18;;;;;;;4.42;96.86;100367.08;1743958;82;20908;-42
2021/04/16 02:07:06;;;;;;;19.62;12.05;;;;;;;4.44;97.08;100373.95;1743929;82;20979;-41
2021/04/16 02:09:35;;;;;;;16.12;11.20;;;;;;;4.44;97.13;100371.82;1743944;82;21002;-42
2021/04/16 02:12:07;;;;;;;19.30;11.85;;;;;;;4.45;97.11;100372.25;1743917;82;21034;-42
2021/04/16 02:14:36;;;;;;;15.65;10.98;;;;;;;4.45;97.09;100371.81;1743902;82;20975;-42
2021/04/16 02:17:15;;;;;;;13.83;10.63;;;;;;;4.46;97.15;100375.25;1743977;82;21046;-42
2021/04/16 02:19:43;;;;;;;14.68;11.53;;;;;;;4.46;97.18;100380.38;1743891;82;21349;-42
2021/04/16 02:22:15;;;;;;;15.32;11.03;;;;;;;4.48;97.19;100381.65;1743975;82;21066;-42
2021/04/16 02:24:42;;;;;;;14.05;10.13;;;;;;;4.49;97.22;100385.52;1743902;81;21015;-42
2021/04/16 02:27:12;;;;;;;14.87;9.80;;;;;;;4.48;97.20;100383.80;1743898;82;20951;-42
2021/04/16 02:29:39;;;;;;;10.60;8.40;;;;;;;4.49;97.20;100378.23;1743974;82;20958;-42
2021/04/16 02:32:09;;;;;;;12.03;8.05;;;;;;;4.50;97.22;100378.25;1743957;82;21206;-43
2021/04/16 02:34:38;;;;;;;7.92;7.17;;;;;;;4.49;97.15;100372.70;1743914;82;20975;-42
2021/04/16 02:37:12;;;;;;;11.83;7.87;;;;;;;4.47;97.14;100376.96;1743920;82;21019;-43
2021/04/16 02:39:40;;;;;;;9.28;6.97;;;;;;;4.46;97.15;100380.38;1743842;82;21228;-42
2021/04/16 02:42:08;;;;;;;6.62;6.03;;;;;;;4.44;97.09;100380.35;1744016;82;20924;-42
2021/04/16 02:44:37;;;;;;;6.22;5.40;;;;;;;4.42;97.02;100387.59;1743938;82;21417;-42
2021/04/16 02:47:06;;;;;;;5.05;4.65;;;;;;;4.36;96.99;100382.02;1743902;82;20963;-42
2021/04/16 02:49:34;;;;;;;5.87;5.05;;;;;;;4.35;96.96;100380.72;1743926;82;20988;-42
2021/04/16 02:52:01;;;;;;;4.80;4.30;;;;;;;4.29;96.91;100387.94;1743860;82;21118;-42
2021/04/16 02:54:29;;;;;;;5.97;5.40;;;;;;;4.25;96.86;100381.08;1743941;82;21598;-42
2021/04/16 02:56:58;;;;;;;5.72;5.22;;;;;;;4.22;96.84;100383.22;1743872;82;21089;-42
2021/04/16 02:59:27;;;;;;;8.93;6.05;;;;;;;4.20;96.89;100382.36;1743856;82;21168;-42
2021/04/16 03:01:55;;;;;;;8.25;6.28;;;;;;;4.16;96.91;100378.03;1743933;82;21141;-42
2021/04/16 03:04:22;;;;;;;8.13;6.47;;;;;;;4.15;96.92;100379.75;1743912;82;21053;-42
2021/04/16 03:06:50;;;;;;;11.70;7.30;;;;;;;4.16;96.98;100382.75;1743899;82;21070;-43
2021/04/16 03:09:18;;;;;;;8.35;7.33;;;;;;;4.15;97.00;100382.31;1743924;82;21436;-42
2021/04/16 03:11:45;;;;;;;7.53;6.72;;;;;;;4.17;97.01;100385.74;1743837;82;20995;-43
2021/04/16 03:14:13;;;;;;;13.32;6.60;;;;;;;4.17;97.01;100385.74;1743870;82;21054;-42
2021/04/16 03:16:41;;;;;;;15.88;7.55;;;;;;;4.23;97.21;100387.50;1743845;82;20971;-42
2021/04/16 03:19:11;;;;;;;9.20;7.78;;;;;;;4.23;97.21;100387.50;1743968;82;20999;-42
2021/04/16 03:21:38;;;;;;;9.18;7.85;;;;;;;4.28;97.24;100389.66;1743864;82;21197;-42
2021/04/16 03:24:08;;;;;;;7.92;6.87;;;;;;;4.32;97.27;100393.11;1743850;82;21026;-42
2021/04/16 03:26:35;;;;;;;7.40;6.37;;;;;;;4.35;97.29;100394.41;1743968;81;21150;-43
2021/04/16 03:29:04;;;;;;;9.10;7.78;;;;;;;4.40;97.30;100396.98;1744017;82;21173;-43
2021/04/16 03:31:32;;;;;;;8.95;7.58;;;;;;;4.42;97.34;100396.56;1744087;82;21015;-43
2021/04/16 03:34:01;;;;;;;8.65;7.75;;;;;;;4.44;97.29;100394.45;1744232;82;22266;-43
2021/04/16 03:36:29;;;;;;;8.25;7.37;;;;;;;4.50;97.43;100402.61;1744028;82;21082;-43
2021/04/16 03:38:57;;;;;;;7.97;6.87;;;;;;;4.57;97.47;100406.08;1744072;82;21053;-43
2021/04/16 03:41:25;;;;;;;8.53;7.58;;;;;;;4.63;97.57;100405.23;1748614;81;21018;-42
2021/04/16 03:43:53;;;;;;;10.30;7.97;;;;;;;4.69;97.62;100409.13;1752283;81;21057;-42
2021/04/16 03:46:21;;;;;;;10.28;8.18;;;;;;;4.77;97.65;100417.70;1752322;81;21495;-41
2021/04/16 03:48:49;;;;;;;9.00;7.85;;;;;;;4.98;97.73;100412.25;1752256;81;20963;-42
2021/04/16 03:51:18;;;;;;;10.00;8.05;;;;;;;4.98;97.73;100412.25;1752237;81;20943;-42
2021/04/16 03:53:46;;;;;;;9.08;8.05;;;;;;;5.23;97.88;100414.90;1752240;81;21010;-42
2021/04/16 03:56:14;;;;;;;8.55;7.75;;;;;;;5.23;97.88;100414.90;1752302;81;21073;-42
2021/04/16 03:58:44;;;;;;;10.18;7.90;;;;;;;5.38;97.97;100417.48;1752248;81;21203;-42
2021/04/16 04:01:12;;;;;;;8.35;7.55;;;;;;;5.57;98.01;100410.70;1752180;81;21034;-42
2021/04/16 04:03:40;;;;;;;9.65;7.47;;;;;;;5.77;98.03;100416.27;1752243;81;20928;-41
2021/04/16 04:06:07;;;;;;;8.43;7.50;;;;;;;5.89;97.96;100414.13;1752274;81;20967;-42
2021/04/16 04:08:35;;;;;;;8.28;6.72;;;;;;;6.01;97.89;100416.75;1752304;81;21089;-42
2021/04/16 04:11:04;;;;;;;8.25;7.45;;;;;;;6.11;97.74;100415.45;1752240;81;21389;-42
2021/04/16 04:13:33;;;;;;;8.38;7.58;;;;;;;6.15;97.54;100418.44;1752175;81;21049;-42
2021/04/16 04:16:04;;;;;;;9.13;8.00;;;;;;;6.15;97.41;100418.44;1752185;81;21469;-42
2021/04/16 04:18:32;;;;;;;8.65;7.75;;;;;;;6.18;97.35;100422.29;1752234;81;20966;-42
2021/04/16 04:21:01;;;;;;;10.15;9.05;;;;;;;6.21;97.37;100425.30;1752280;81;21069;-41
2021/04/16 04:23:29;;;;;;;13.65;9.45;;;;;;;6.25;97.40;100427.88;1752294;81;21471;-41
2021/04/16 04:25:58;;;;;;;11.73;9.70;;;;;;;6.29;97.44;100429.99;1752198;80;20967;-43
2021/04/16 04:28:26;;;;;;;13.18;11.33;;;;;;;6.34;97.51;100428.30;1752247;81;20975;-43
2021/04/16 04:30:53;;;;;;;15.08;10.25;;;;;;;6.39;97.51;100433.00;1752174;81;20963;-42
2021/04/16 04:33:21;;;;;;;19.30;11.65;;;;;;;6.43;97.45;100434.70;1752243;81;20944;-42
2021/04/16 04:35:49;;;;;;;22.75;12.53;;;;;;;6.47;97.38;100438.13;1752249;81;22164;-43
2021/04/16 04:38:17;;;;;;;19.10;12.70;;;;;;;6.53;97.34;100442.39;1752218;81;21017;-43
2021/04/16 04:40:45;;;;;;;22.48;13.68;;;;;;;6.56;97.33;100444.95;1751663;81;21074;-43
2021/04/16 04:43:13;;;;;;;20.02;12.60;;;;;;;6.61;97.35;100446.66;1749525;82;21085;-42
2021/04/16 04:45:41;;;;;;;18.07;13.30;;;;;;;6.65;97.23;100447.52;1749580;82;20995;-43
2021/04/16 04:48:09;;;;;;;20.00;14.13;;;;;;;6.70;97.19;100443.66;1749650;82;21211;-43
2021/04/16 04:50:37;;;;;;;22.20;13.80;;;;;;;6.74;97.12;100452.63;1749569;82;21086;-43
2021/04/16 04:53:05;;;;;;;23.20;13.85;;;;;;;6.78;97.08;100447.06;1749625;82;21010;-43
2021/04/16 04:55:33;;;;;;;31.93;14.73;;;;;;;6.83;97.05;100449.19;1749587;82;20955;-41
2021/04/16 04:58:01;;;;;;;21.15;14.05;;;;;;;6.87;97.00;100448.31;1749558;82;21181;-43
2021/04/16 05:00:29;;;;;;;20.60;13.50;;;;;;;6.93;96.96;100444.86;1749464;82;21372;-42
2021/04/16 05:02:56;;;;;;;23.95;14.87;;;;;;;7.02;96.98;100447.84;1749497;82;20958;-43
2021/04/16 05:05:25;;;;;;;21.48;14.33;;;;;;;7.11;97.04;100445.22;1749583;82;21019;-42
2021/04/16 05:07:52;;;;;;;20.95;14.25;;;;;;;7.25;97.19;100453.33;1749548;82;21085;-43
2021/04/16 05:10:20;;;;;;;21.27;13.95;;;;;;;7.38;97.18;100443.37;1749587;82;21030;-42
2021/04/16 05:12:48;;;;;;;22.02;14.55;;;;;;;7.51;96.94;100442.87;1749521;82;21207;-41
2021/04/16 05:15:18;;;;;;;21.10;14.13;;;;;;;7.60;96.72;100444.54;1749467;82;21046;-41
2021/04/16 05:17:46;;;;;;;17.17;13.48;;;;;;;7.71;96.63;100444.05;1749604;82;21547;-41
2021/04/16 05:20:15;;;;;;;21.33;13.60;;;;;;;7.79;96.45;100445.71;1749525;82;21026;-42
2021/04/16 05:22:42;;;;;;;20.68;13.90;;;;;;;7.89;96.28;100440.91;1749601;82;21488;-42
2021/04/16 05:25:11;;;;;;;18.35;13.68;;;;;;;7.98;96.19;100438.27;1749530;80;21209;-42
2021/04/16 05:27:39;;;;;;;17.62;13.05;;;;;;;8.08;96.08;100444.63;1749520;82;21026;-42
2021/04/16 05:30:08;;;;;;;14.30;11.43;;;;;;;8.16;95.82;100440.25;1749553;82;21148;-41
2021/04/16 05:32:35;;;;;;;17.95;12.82;;;;;;;8.26;95.64;100439.32;1749466;82;21035;-43
2021/04/16 05:35:05;;;;;;;18.98;12.93;;;;;;;8.32;95.37;100440.97;1749533;82;21038;-44
2021/04/16 05:37:33;;;;;;;18.32;13.25;;;;;;;8.36;95.14;100441.80;1749502;82;21377;-42
2021/04/16 05:40:01;;;;;;;19.35;11.90;;;;;;;8.41;94.92;100441.32;1749376;82;21026;-43
2021/04/16 05:42:28;;;;;;;18.52;13.10;;;;;;;8.43;94.70;100433.13;1751467;81;20998;-43
2021/04/16 05:44:59;;;;;;;14.65;12.45;;;;;;;8.41;94.39;100440.03;1752129;81;21030;-43
2021/04/16 05:47:29;;;;;;;14.65;11.68;;;;;;;8.38;94.06;100440.94;1752188;81;20943;-43
2021/04/16 05:49:57;;;;;;;12.93;10.55;;;;;;;8.36;93.49;100449.54;1752163;81;21502;-42
2021/04/16 05:52:26;;;;;;;10.72;9.43;;;;;;;8.29;93.01;100446.16;1752195;81;21006;-41
2021/04/16 05:54:53;;;;;;;11.00;9.45;;;;;;;8.21;92.37;100448.83;1752231;81;21156;-41
2021/04/16 05:57:21;;;;;;;13.03;10.25;;;;;;;8.19;92.60;100450.53;1752151;81;21081;-42
2021/04/16 05:59:49;;;;;;;12.30;9.95;;;;;;;8.18;92.53;100449.70;1752250;81;21014;-42
2021/04/16 06:02:31;;;;;;;13.10;9.43;;;;;;;8.18;92.19;100455.27;1752185;81;21377;-42
2021/04/16 06:05:04;;;;;;;8.95;8.05;;;;;;;8.12;91.77;100460.49;1752089;81;21029;-42
2021/04/16 06:07:32;;;;;;;8.98;8.18;;;;;;;8.06;91.51;100456.23;1724727;81;21098;-42
2021/04/16 06:10:02;;;;;;;10.82;8.75;;;;;;;8.03;91.49;100461.41;1752109;81;20975;-42
2021/04/16 06:12:30;;;;;;;9.35;8.33;;;;;;;8.05;91.55;100464.41;1752212;81;21227;-42
2021/04/16 06:14:59;;;;;;;9.55;8.18;;;;;;;8.09;91.54;100463.09;1752199;81;21611;-41
2021/04/16 06:17:27;;;;;;;9.10;7.78;;;;;;;8.12;91.23;100457.91;1752120;81;21002;-42
2021/04/16 06:19:55;;;;;;;10.48;8.08;;;;;;;8.12;91.06;100465.65;1752143;81;21099;-41
2021/04/16 06:22:22;;;;;;;11.35;8.73;;;;;;;8.15;91.14;100469.07;1752148;81;21061;-42
2021/04/16 06:24:50;;;;;;;9.18;8.25;;;;;;;8.24;91.26;100466.85;1752124;80;20962;-41
2021/04/16 06:27:18;;;;;;;9.08;8.15;;;;;;;8.34;91.03;100467.18;1752159;81;21633;-41
2021/04/16 06:29:46;;;;;;;8.10;7.30;;;;;;;8.46;90.72;100472.66;1752094;81;21034;-42
2021/04/16 06:32:14;;;;;;;8.90;8.00;;;;;;;8.60;90.40;100459.66;1752152;81;21002;-43
2021/04/16 06:34:43;;;;;;;8.93;7.25;;;;;;;8.78;90.43;100466.80;1752171;81;21018;-42
2021/04/16 06:37:11;;;;;;;8.25;7.22;;;;;;;8.93;89.39;100470.06;1752149;81;21156;-43
2021/04/16 06:39:39;;;;;;;7.60;6.78;;;;;;;9.02;89.20;100471.27;1752226;81;22369;-43
2021/04/16 06:42:28;;;;;;;7.95;7.15;;;;;;;9.08;88.65;100471.19;1748187;81;21105;-43
2021/04/16 06:45:06;;;;;;;8.10;7.30;;;;;;;9.13;88.47;100475.85;1743983;82;21015;-41
2021/04/16 06:47:44;;;;;;;8.23;7.42;;;;;;;9.10;87.36;100477.19;1743851;82;21200;-44
2021/04/16 06:50:14;;;;;;;9.33;7.08;;;;;;;9.00;86.46;100477.73;1723293;82;21586;-42
2021/04/16 06:52:52;;;;;;;7.47;6.78;;;;;;;8.92;86.24;100476.97;1743924;82;21203;-42
2021/04/16 06:55:25;;;;;;;7.37;6.62;;;;;;;8.85;86.10;100478.75;1743444;82;21042;-43
2021/04/16 06:58:11;;;;;;;9.05;8.15;;;;;;;8.85;86.45;100476.17;1743928;82;21059;-42
2021/04/16 07:01:12;;;;;;;8.70;7.75;;;;;;;8.86;86.47;100477.88;1744099;82;21549;-41
2021/04/16 07:03:46;;;;;;;7.90;7.08;;;;;;;8.85;85.99;100483.92;1744144;82;21596;-42
2021/04/16 07:06:29;;;;;;;8.70;7.78;;;;;;;8.89;85.69;100486.05;1744093;82;21384;-43
2021/04/16 07:09:14;;;;;;;7.95;7.17;;;;;;;8.95;85.62;100487.25;1743982;82;20971;-42
2021/04/16 07:11:50;;;;;;;17.85;8.38;;;;;;;9.00;84.93;100488.05;1743441;82;21042;-42
2021/04/16 07:14:27;;;;;;;9.80;8.13;;;;;;;9.10;85.04;100488.80;1744125;82;21089;-42
2021/04/16 07:16:56;;;;;;;10.90;8.15;;;;;;;9.17;84.67;100493.47;1744081;82;21010;-42
2021/04/16 07:19:26;;;;;;;10.40;8.88;;;;;;;9.20;84.57;100494.27;1744011;82;21379;-42
2021/04/16 07:22:03;;;;;;;10.15;8.20;;;;;;;9.18;84.20;100499.89;1743967;82;21066;-43
2021/04/16 07:24:32;;;;;;;9.88;8.88;;;;;;;9.16;84.43;100491.31;1743989;80;20935;-42
2021/04/16 07:27:20;;;;;;;10.82;9.38;;;;;;;9.19;84.52;100491.27;1744014;82;21176;-42
2021/04/16 07:29:57;;;;;;;15.50;11.48;;;;;;;9.19;84.41;100487.84;1744072;82;21030;-42
2021/04/16 07:32:40;;;;;;;13.62;10.93;;;;;;;9.18;84.26;100494.72;1744024;82;21214;-42
2021/04/16 07:35:24;;;;;;;14.98;10.45;;;;;;;9.15;84.56;100497.80;1744000;82;21027;-42
2021/04/16 07:38:14;;;;;;;12.55;10.28;;;;;;;9.17;84.25;100497.34;1744054;82;21031;-42
2021/04/16 07:40:45;;;;;;;15.08;10.20;;;;;;;9.03;84.14;100498.80;1743908;82;21099;-43
2021/04/16 07:43:47;;;;;;;12.85;9.65;;;;;;;8.94;84.66;100498.88;1748374;82;20896;-42
2021/04/16 07:46:29;;;;;;;14.75;10.53;;;;;;;8.98;84.79;100501.87;1749601;82;21376;-43
2021/04/16 07:49:23;;;;;;;12.00;9.60;;;;;;;9.19;84.91;100501.59;1749546;82;20979;-43
2021/04/16 07:51:55;;;;;;;13.78;9.78;;;;;;;9.40;84.42;100497.50;1749621;82;21062;-42
2021/04/16 07:54:29;;;;;;;10.03;8.45;;;;;;;9.67;83.48;100495.41;1749609;82;21058;-44
2021/04/16 07:57:12;;;;;;;9.28;7.85;;;;;;;9.85;82.96;100493.00;1749627;82;21563;-43
2021/04/16 07:59:59;;;;;;;9.38;7.05;;;;;;;9.95;82.04;100487.25;1749634;82;21376;-43
2021/04/16 08:02:33;;;;;;;8.25;6.87;;;;;;;9.93;81.43;100496.31;1749547;82;20962;-43
2021/04/16 08:05:28;;;;;;;7.28;6.58;;;;;;;9.92;80.68;100495.48;1749606;82;21117;-43
2021/04/16 08:08:21;;;;;;;6.90;6.20;;;;;;;9.91;80.45;100503.24;1714025;82;21050;-43
2021/04/16 08:11:08;;;;;;;7.12;6.45;;;;;;;9.86;80.52;100502.46;1749506;82;21401;-43
2021/04/16 08:13:50;;;;;;;9.80;6.87;;;;;;;9.85;80.05;100505.92;1749838;82;21206;-43
2021/04/16 08:16:19;;;;;;;7.45;6.00;;;;;;;9.63;79.70;100507.52;1749378;82;20991;-43
2021/04/16 08:19:28;;;;;;;10.45;8.05;;;;;;;9.49;80.55;100511.16;1749617;82;21023;-43
2021/04/16 08:22:08;;;;;;;11.18;8.70;;;;;;;9.40;80.98;100503.50;1749481;82;20959;-43
2021/04/16 08:25:03;;;;;;;12.60;8.35;;;;;;;9.32;81.62;100515.67;1724697;80;21006;-40
2021/04/16 08:27:59;;;;;;;11.57;9.18;;;;;;;9.24;81.76;100515.76;1749621;82;21383;-42
2021/04/16 08:30:55;;;;;;;17.80;10.65;;;;;;;9.24;82.11;100518.80;1749727;82;21709;-42
2021/04/16 08:33:29;;;;;;;13.13;9.13;;;;;;;9.14;82.06;100515.01;1749957;82;21570;-41
2021/04/16 08:36:31;;;;;;;14.87;10.00;;;;;;;9.03;82.21;100513.00;1749580;82;21055;-42
2021/04/16 08:39:22;;;;;;;13.72;9.33;;;;;;;8.90;82.26;100514.86;1749605;82;20955;-43
2021/04/16 08:42:10;;;;;;;12.88;9.88;;;;;;;8.76;82.94;100509.84;1749115;82;21280;-44
2021/04/16 08:44:46;;;;;;;16.65;9.70;;;;;;;8.71;83.48;100520.62;1743910;82;21030;-43
2021/04/16 08:47:33;;;;;;;11.75;7.85;;;;;;;8.66;83.69;100515.94;1743998;82;21035;-43
2021/04/16 08:50:03;;;;;;;8.63;6.67;;;;;;;8.51;83.48;100528.13;1717388;82;20999;-42
2021/04/16 08:52:48;;;;;;;8.05;6.53;;;;;;;8.43;83.68;100526.00;1744006;82;21030;-43
2021/04/16 08:55:34;;;;;;;6.85;6.15;;;;;;;8.35;83.86;100532.53;1744334;82;22370;-43
2021/04/16 08:58:32;;;;;;;6.08;5.22;;;;;;;8.29;84.18;100533.84;1743866;82;20995;-42
2021/04/16 09:01:17;;;;;;;8.48;4.83;;;;;;;8.30;84.56;100541.59;1743957;82;21086;-42
2021/04/16 09:03:52;;;;;;;4.55;3.40;;;;;;;8.28;84.35;100542.45;1743679;82;21003;-43
2021/04/16 09:06:39;;;;;;;5.30;3.75;;;;;;;8.24;84.28;100535.61;1743958;82;21023;-41
2021/04/16 09:09:12;;;;;;;4.90;3.00;;;;;;;8.17;84.36;100538.66;1744142;82;21158;-41
2021/04/16 09:11:48;;;;;;;3.80;2.50;;;;;;;8.11;84.70;100537.42;1744138;82;20967;-43
2021/04/16 09:14:34;;;;;;;2.40;1.98;;;;;;;8.04;84.60;100540.47;1743879;82;21193;-43
2021/04/16 09:17:08;;;;;;;2.92;1.55;;;;;;;7.98;84.31;100543.09;1740681;82;21058;-43
2021/04/16 09:19:42;;;;;;;2.00;1.37;;;;;;;7.91;84.82;100542.27;1743854;82;20963;-43
2021/04/16 09:22:18;;;;;;;2.08;1.98;;;;;;;7.85;85.34;100542.31;1744036;82;22287;-44
2021/04/16 09:24:55;;;;;;;1.87;1.07;;;;;;;7.80;85.88;100541.48;1743435;81;21145;-42
2021/04/16 09:27:42;;;;;;;1.75;1.50;;;;;;;7.75;86.10;100548.81;1743987;82;21027;-44
2021/04/16 09:30:21;;;;;;;1.32;1.07;;;;;;;7.74;86.80;100548.81;1743929;82;21093;-44
2021/04/16 09:32:53;;;;;;;6.22;1.10;;;;;;;7.71;87.03;100549.70;1743921;82;20998;-44
2021/04/16 09:35:31;;;;;;;1.00;0.70;;;;;;;7.62;87.30;100554.88;1743980;82;21488;-43
2021/04/16 09:38:41;;;;;;;0.60;0.60;;;;;;;7.58;87.63;100559.63;1743928;82;21149;-44
2021/04/16 09:41:25;;;;;;;2.02;0.70;;;;;;;7.61;88.19;100554.04;1726406;82;20944;-44
2021/04/16 09:43:56;;;;;;;1.75;0.78;;;;;;;7.67;88.02;100569.03;1750236;81;20939;-42
2021/04/16 09:46:37;;;;;;;0.93;0.60;;;;;;;7.66;87.95;100569.45;1752180;81;20935;-43
2021/04/16 09:49:10;;;;;;;1.05;0.70;;;;;;;7.68;88.25;100576.74;1752149;81;21379;-43
2021/04/16 09:51:41;;;;;;;1.85;1.00;;;;;;;7.69;87.65;100573.30;1748158;81;21052;-43
2021/04/16 09:54:15;;;;;;;1.75;0.50;;;;;;;7.70;87.62;100568.57;1752191;81;20972;-44
2021/04/16 09:57:08;;;;;;;0.50;0.50;;;;;;;7.67;86.20;100569.88;1752367;81;20978;-44
2021/04/16 09:59:40;;;;;;;0.47;0.47;;;;;;;7.63;86.52;100578.48;1752346;81;21066;-43
2021/04/16 10:02:17;;;;;;;2.15;0.50;;;;;;;7.60;86.19;100570.36;1752160;81;21463;-44
2021/04/16 10:05:10;;;;;;;1.60;0.70;;;;;;;7.59;86.07;100577.67;1724002;81;21011;-43
2021/04/16 10:07:46;;;;;;;0.72;0.70;;;;;;;7.52;85.51;100578.98;1752194;81;21169;-41
2021/04/16 10:10:37;;;;;;;4.12;1.00;;;;;;;7.42;85.72;100581.56;1748846;81;21109;-43
2021/04/16 10:13:22;;;;;;;0.90;0.70;;;;;;;7.33;85.96;100588.92;1752284;81;21120;-43
2021/04/16 10:15:52;;;;;;;1.75;0.68;;;;;;;7.27;86.32;100587.62;1752228;81;21223;-44
2021/04/16 10:18:32;;;;;;;1.45;0.80;;;;;;;7.25;86.38;100580.78;1752183;81;20983;-44
2021/04/16 10:21:19;;;;;;;4.87;0.60;;;;;;;7.31;86.97;100585.91;1725307;81;21488;-44
2021/04/16 10:56:53;;;;;;;0.65;0.37;;;;;;;8.11;83.71;100611.78;1749513;82;21132;-41
2021/04/16 12:38:49;;;;;;;3.70;0.85;;;;;;;9.19;71.00;100607.95;1776361;80;21027;-42
2021/04/16 12:41:22;;;;;;;0.70;0.70;;;;;;;9.33;70.45;100614.26;1710082;83;21023;-41
2021/04/16 12:43:49;;;;;;;3.77;1.10;;;;;;;9.39;69.63;100608.17;1710012;84;21279;-40
2021/04/16 12:46:23;;;;;;;20.02;2.45;;;;;;;9.38;70.65;100610.34;1776326;80;21113;-43
2021/04/16 12:48:51;;;;;;;15.35;2.12;;;;;;;9.43;70.36;100607.27;1710077;84;21529;-41
2021/04/16 12:51:18;;;;;;;8.15;1.37;;;;;;;9.58;70.45;100606.23;1709951;84;21118;-43
2021/04/16 12:53:46;;;;;;;1.22;1.22;;;;;;;9.71;68.68;100607.77;1776396;80;20904;-43
2021/04/16 12:56:17;;;;;;;9.45;2.05;;;;;;;9.85;69.31;100611.93;1776373;80;21194;-43
2021/04/16 12:58:44;;;;;;;2.55;1.00;;;;;;;10.12;68.66;100611.14;1704781;84;21505;-44
2021/04/16 13:01:28;;;;;;;1.00;1.00;;;;;;;10.42;66.28;100616.77;1768097;81;21019;-43
2021/04/16 13:03:56;;;;;;;3.72;0.90;;;;;;;10.49;64.43;100608.05;1768163;81;21601;-43
2021/04/16 13:06:34;;;;;;;1.10;1.00;;;;;;;10.48;65.38;100605.02;1722284;81;20956;-44
2021/04/16 13:09:02;;;;;;;2.08;1.20;;;;;;;10.49;64.86;100614.06;1768222;81;21458;-44
2021/04/16 13:11:29;;;;;;;3.55;1.00;;;;;;;10.50;64.92;100598.11;1702160;83;21008;-44
2021/04/16 13:13:57;;;;;;;23.05;2.20;;;;;;;10.52;65.39;100614.48;1768122;80;20936;-41
2021/04/16 13:16:25;;;;;;;3.42;1.30;;;;;;;10.53;64.95;100613.59;1768138;81;20929;-43
2021/04/16 13:18:59;;;;;;;4.33;1.27;;;;;;;10.55;63.38;100607.95;1768251;81;21059;-42
2021/04/16 13:21:37;;;;;;;1.00;1.00;;;;;;;10.40;62.92;100613.32;1768240;81;21516;-42
2021/04/16 13:24:07;;;;;;;1.00;0.88;;;;;;;10.24;63.56;100618.73;1768079;81;21066;-42
2021/04/16 13:26:37;;;;;;;5.67;1.22;;;;;;;10.01;64.00;100619.91;1702078;84;20964;-44
2021/04/16 13:29:05;;;;;;;1.07;1.07;;;;;;;9.85;62.94;100620.98;1768179;81;21548;-44
2021/04/16 13:31:35;;;;;;;1.10;1.10;;;;;;;9.66;64.78;100622.48;1768096;81;21015;-44
2021/04/16 13:34:03;;;;;;;1.00;1.00;;;;;;;9.63;64.90;100614.78;1702201;84;21376;-44
2021/04/16 13:36:33;;;;;;;8.30;1.37;;;;;;;9.73;65.23;100623.28;1768116;81;21086;-43
2021/04/16 13:39:01;;;;;;;2.72;1.05;;;;;;;9.93;65.44;100624.31;1768136;81;21153;-41
2021/04/16 13:41:29;;;;;;;0.80;0.80;;;;;;;10.19;64.75;100624.39;1702098;84;21059;-41
2021/04/16 13:43:58;;;;;;;1.05;0.85;;;;;;;10.27;63.03;100625.16;1768118;81;21007;-41
2021/04/16 13:46:28;;;;;;;1.95;0.70;;;;;;;10.20;63.37;100626.10;1702177;84;21280;-41
2021/04/16 13:48:56;;;;;;;1.57;1.00;;;;;;;10.10;63.26;100634.88;1702207;84;21589;-43
2021/04/16 13:51:24;;;;;;;1.57;1.00;;;;;;;9.99;63.67;100638.48;1768137;80;20940;-42
2021/04/16 13:53:53;;;;;;;1.57;0.80;;;;;;;9.91;63.29;100637.28;1768080;81;21035;-43
2021/04/16 13:56:21;;;;;;;1.62;0.80;;;;;;;9.78;63.30;100638.29;1702107;84;21099;-43
2021/04/16 13:58:48;;;;;;;1.20;1.10;;;;;;;9.80;64.72;100636.54;1706328;83;21408;-41
2021/04/16 14:01:16;;;;;;;0.75;0.75;;;;;;;9.89;63.44;100635.57;1776212;80;21063;-42
2021/04/16 14:03:47;;;;;;;0.78;0.78;;;;;;;9.94;62.45;100629.90;1682133;84;21070;-44
2021/04/16 14:06:22;;;;;;;2.20;0.70;;;;;;;9.94;63.00;100622.14;1776348;80;21575;-44